Time;durP1;ratioP1;P1;durP2;ratioP2;P2;SDS_P1;SDS_P2;PMS_P1;PMS_P2;Temp;Humidity;BMP_temperature;BMP_pressure;BME280_temperature;BME280_humidity;BME280_pressure;Samples;Min_cycle;Max_cycle;Signal;HPM_P1;HPM_P2
2024/01/12 00:01:18;;;;;;;;;;;;;;;;;;5053213;28;20387;-70
2024/01/12 00:03:44;;;;;;;;;;;;;;;;;;5053118;28;20004;-69
2024/01/12 00:06:11;;;;;;;;;;;;;;;;;;5054412;28;19915;-69
2024/01/12 00:08:37;;;;;;;;;;;;;;;;;;5054405;28;19913;-69
2024/01/12 00:11:03;;;;;;;;;;;;;;;;;;5052787;28;20373;-69
2024/01/12 00:13:29;;;;;;;;;;;;;;;;;;5053647;28;19992;-69
2024/01/12 00:15:55;;;;;;;;;;;;;;;;;;5054523;28;20377;-69
2024/01/12 00:18:21;;;;;;;;;;;;;;;;;;5053878;28;20350;-69
2024/01/12 00:20:46;;;;;;;;;;;;;;;;;;5053288;28;19999;-69
2024/01/12 00:23:12;;;;;;;;;;;;;;;;;;5054100;28;20029;-69
2024/01/12 00:25:38;;;;;;;;;;;;;;;;;;5053798;28;19909;-69
2024/01/12 00:28:04;;;;;;;;;;;;;;;;;;5052865;28;19912;-69
2024/01/12 00:30:30;;;;;;;;;;;;;;;;;;5054102;28;19908;-69
2024/01/12 00:32:56;;;;;;;;;;;;;;;;;;5053562;28;19913;-70
2024/01/12 00:35:22;;;;;;;;;;;;;;;;;;5054020;28;19909;-69
2024/01/12 00:37:49;;;;;;;;;;;;;;;;;;5053907;28;19934;-70
2024/01/12 00:40:15;;;;;;;;;;;;;;;;;;5052294;28;20280;-69
2024/01/12 00:42:41;;;;;;;;;;;;;;;;;;5053816;28;19917;-69
2024/01/12 00:45:07;;;;;;;;;;;;;;;;;;5054067;28;19916;-69
2024/01/12 00:47:33;;;;;;;;;;;;;;;;;;5053464;28;20303;-68
2024/01/12 00:50:00;;;;;;;;;;;;;;;;;;5054060;28;20004;-69
2024/01/12 00:52:26;;;;;;;;;;;;;;;;;;5053779;28;19909;-69
2024/01/12 00:54:52;;;;;;;;;;;;;;;;;;5053332;28;19909;-69
2024/01/12 00:57:18;;;;;;;;;;;;;;;;;;5052248;28;20011;-69
2024/01/12 00:59:44;;;;;;;;;;;;;;;;;;5052034;28;19913;-69
2024/01/12 01:02:10;;;;;;;;;;;;;;;;;;5053948;28;19958;-70
2024/01/12 01:04:36;;;;;;;;;;;;;;;;;;5053552;28;19954;-70
2024/01/12 01:07:02;;;;;;;;;;;;;;;;;;5053222;28;19908;-69
2024/01/12 01:09:28;;;;;;;;;;;;;;;;;;5053695;28;19951;-69
2024/01/12 01:11:54;;;;;;;;;;;;;;;;;;5052291;28;19916;-69
2024/01/12 01:14:24;;;;;;;;;;;;;;;;;;5051935;28;20042;-69
2024/01/12 01:16:50;;;;;;;;;;;;;;;;;;5053564;28;19909;-69
2024/01/12 01:19:17;;;;;;;;;;;;;;;;;;5053500;28;19909;-70
2024/01/12 01:21:43;;;;;;;;;;;;;;;;;;5052931;28;19935;-69
2024/01/12 01:24:08;;;;;;;;;;;;;;;;;;5054454;28;19912;-69
2024/01/12 01:26:34;;;;;;;;;;;;;;;;;;5057518;28;20395;-69
2024/01/12 01:29:00;;;;;;;;;;;;;;;;;;5057274;28;20411;-68
2024/01/12 01:31:26;;;;;;;;;;;;;;;;;;5057504;28;20272;-68
2024/01/12 01:33:52;;;;;;;;;;;;;;;;;;5056100;28;19909;-68
2024/01/12 01:36:18;;;;;;;;;;;;;;;;;;5056895;28;19916;-69
2024/01/12 01:38:44;;;;;;;;;;;;;;;;;;5057264;28;20365;-69
2024/01/12 01:41:10;;;;;;;;;;;;;;;;;;5057138;28;20368;-69
2024/01/12 01:43:36;;;;;;;;;;;;;;;;;;5055423;28;19936;-69
2024/01/12 01:46:02;;;;;;;;;;;;;;;;;;5057145;28;19909;-69
2024/01/12 01:48:28;;;;;;;;;;;;;;;;;;5057193;28;19908;-69
2024/01/12 01:50:54;;;;;;;;;;;;;;;;;;5055353;28;19919;-69
2024/01/12 01:53:20;;;;;;;;;;;;;;;;;;5055843;28;19942;-69
2024/01/12 01:55:46;;;;;;;;;;;;;;;;;;5055487;28;19917;-69
2024/01/12 01:58:12;;;;;;;;;;;;;;;;;;5056565;28;19915;-69
2024/01/12 02:00:38;;;;;;;;;;;;;;;;;;5056925;28;20385;-68
2024/01/12 02:03:04;;;;;;;;;;;;;;;;;;5056298;28;19920;-68
2024/01/12 02:05:30;;;;;;;;;;;;;;;;;;5056797;28;19998;-68
2024/01/12 02:07:56;;;;;;;;;;;;;;;;;;5056749;28;20380;-69
2024/01/12 02:10:21;;;;;;;;;;;;;;;;;;5056267;28;20427;-69
2024/01/12 02:12:48;;;;;;;;;;;;;;;;;;5056588;28;20370;-69
2024/01/12 02:15:14;;;;;;;;;;;;;;;;;;5056516;28;19913;-69
2024/01/12 02:17:40;;;;;;;;;;;;;;;;;;5054808;28;19917;-69
2024/01/12 02:20:06;;;;;;;;;;;;;;;;;;5056471;28;19909;-69
2024/01/12 02:22:32;;;;;;;;;;;;;;;;;;5056344;28;19916;-69
2024/01/12 02:24:58;;;;;;;;;;;;;;;;;;5055215;28;20308;-69
2024/01/12 02:27:24;;;;;;;;;;;;;;;;;;5055270;28;19974;-68
2024/01/12 02:29:53;;;;;;;;;;;;;;;;;;5054963;28;19999;-68
2024/01/12 02:32:19;;;;;;;;;;;;;;;;;;5054451;28;19909;-68
2024/01/12 02:34:45;;;;;;;;;;;;;;;;;;5054818;28;19955;-68
2024/01/12 02:37:11;;;;;;;;;;;;;;;;;;5054206;28;19916;-69
2024/01/12 02:39:37;;;;;;;;;;;;;;;;;;5055728;28;19908;-68
2024/01/12 02:42:03;;;;;;;;;;;;;;;;;;5056353;28;20415;-69
2024/01/12 02:44:29;;;;;;;;;;;;;;;;;;5055891;28;20368;-69
2024/01/12 02:46:55;;;;;;;;;;;;;;;;;;5054216;28;20328;-68
2024/01/12 02:49:21;;;;;;;;;;;;;;;;;;5055833;28;19909;-68
2024/01/12 02:51:47;;;;;;;;;;;;;;;;;;5056108;28;19954;-69
2024/01/12 02:54:13;;;;;;;;;;;;;;;;;;5054199;28;20361;-68
2024/01/12 02:56:39;;;;;;;;;;;;;;;;;;5055681;28;20328;-68
2024/01/12 02:59:05;;;;;;;;;;;;;;;;;;5054368;28;20011;-69
2024/01/12 03:01:31;;;;;;;;;;;;;;;;;;5053978;28;19920;-68
2024/01/12 03:03:57;;;;;;;;;;;;;;;;;;5055835;28;19913;-69
2024/01/12 03:06:23;;;;;;;;;;;;;;;;;;5055222;28;19915;-68
2024/01/12 03:08:49;;;;;;;;;;;;;;;;;;5056050;28;19916;-69
2024/01/12 03:11:15;;;;;;;;;;;;;;;;;;5055491;28;19909;-69
2024/01/12 03:13:41;;;;;;;;;;;;;;;;;;5055385;28;19924;-68
2024/01/12 03:16:07;;;;;;;;;;;;;;;;;;5054192;28;19909;-68
2024/01/12 03:18:33;;;;;;;;;;;;;;;;;;5055669;28;19916;-69
2024/01/12 03:20:59;;;;;;;;;;;;;;;;;;5054763;28;19909;-69
2024/01/12 03:23:25;;;;;;;;;;;;;;;;;;5055795;28;20277;-69
2024/01/12 03:25:51;;;;;;;;;;;;;;;;;;5055265;28;19909;-69
2024/01/12 03:28:16;;;;;;;;;;;;;;;;;;5054897;28;19940;-69
2024/01/12 03:30:42;;;;;;;;;;;;;;;;;;5054027;28;19956;-69
2024/01/12 03:33:09;;;;;;;;;;;;;;;;;;5053885;28;19919;-69
2024/01/12 03:35:35;;;;;;;;;;;;;;;;;;5054741;28;19916;-69
2024/01/12 03:38:01;;;;;;;;;;;;;;;;;;5055004;28;19909;-69
2024/01/12 03:40:27;;;;;;;;;;;;;;;;;;5054980;28;19979;-69
2024/01/12 03:42:53;;;;;;;;;;;;;;;;;;5053158;28;20373;-69
2024/01/12 03:45:19;;;;;;;;;;;;;;;;;;5054963;28;19908;-70
2024/01/12 03:47:45;;;;;;;;;;;;;;;;;;5053858;28;19909;-70
2024/01/12 03:50:11;;;;;;;;;;;;;;;;;;5054380;28;19916;-69
2024/01/12 03:52:37;;;;;;;;;;;;;;;;;;5054915;28;20094;-68
2024/01/12 03:55:03;;;;;;;;;;;;;;;;;;5054500;28;20267;-68
2024/01/12 03:57:28;;;;;;;;;;;;;;;;;;5054528;28;19924;-68
2024/01/12 03:59:54;;;;;;;;;;;;;;;;;;5054865;28;20353;-69
2024/01/12 04:02:20;;;;;;;;;;;;;;;;;;5054484;28;20361;-69
2024/01/12 04:04:46;;;;;;;;;;;;;;;;;;5052868;28;20325;-70
2024/01/12 04:07:12;;;;;;;;;;;;;;;;;;5054578;28;20324;-70
2024/01/12 04:09:38;;;;;;;;;;;;;;;;;;5054307;28;19909;-70
2024/01/12 04:12:04;;;;;;;;;;;;;;;;;;5053194;28;20360;-70
2024/01/12 04:14:30;;;;;;;;;;;;;;;;;;5054423;28;20292;-70
2024/01/12 04:16:56;;;;;;;;;;;;;;;;;;5053943;28;19970;-70
2024/01/12 04:19:22;;;;;;;;;;;;;;;;;;5052951;28;20026;-70
2024/01/12 04:21:48;;;;;;;;;;;;;;;;;;5054491;28;19912;-69
2024/01/12 04:24:14;;;;;;;;;;;;;;;;;;5053990;28;19919;-72
2024/01/12 04:26:40;;;;;;;;;;;;;;;;;;5054201;28;20061;-69
2024/01/12 04:29:06;;;;;;;;;;;;;;;;;;5054078;28;19908;-69
2024/01/12 04:31:32;;;;;;;;;;;;;;;;;;5053647;28;19909;-69
2024/01/12 04:33:58;;;;;;;;;;;;;;;;;;5054032;28;19994;-69
2024/01/12 04:36:23;;;;;;;;;;;;;;;;;;5054049;28;19927;-69
2024/01/12 04:38:49;;;;;;;;;;;;;;;;;;5053459;28;19909;-69
2024/01/12 04:41:15;;;;;;;;;;;;;;;;;;5053908;28;19909;-69
2024/01/12 04:43:41;;;;;;;;;;;;;;;;;;5052630;28;19920;-69
2024/01/12 04:46:07;;;;;;;;;;;;;;;;;;5053406;28;19952;-69
2024/01/12 04:48:33;;;;;;;;;;;;;;;;;;5053630;28;19916;-69
2024/01/12 04:50:59;;;;;;;;;;;;;;;;;;5053737;28;20341;-68
2024/01/12 04:53:25;;;;;;;;;;;;;;;;;;5053227;28;20305;-68
2024/01/12 04:55:51;;;;;;;;;;;;;;;;;;5053395;28;20262;-69
2024/01/12 04:58:17;;;;;;;;;;;;;;;;;;5052269;28;19916;-68
2024/01/12 05:00:43;;;;;;;;;;;;;;;;;;5051575;28;19909;-69
2024/01/12 05:03:09;;;;;;;;;;;;;;;;;;5053876;28;19917;-68
2024/01/12 05:05:35;;;;;;;;;;;;;;;;;;5053498;28;19909;-69
2024/01/12 05:08:01;;;;;;;;;;;;;;;;;;5053182;28;19908;-69
2024/01/12 05:10:27;;;;;;;;;;;;;;;;;;5053683;28;19935;-69
2024/01/12 05:12:53;;;;;;;;;;;;;;;;;;5053442;28;20371;-69
2024/01/12 05:15:19;;;;;;;;;;;;;;;;;;5053397;28;20269;-69
2024/01/12 05:17:45;;;;;;;;;;;;;;;;;;5053372;28;20323;-69
2024/01/12 05:20:11;;;;;;;;;;;;;;;;;;5053032;28;20323;-69
2024/01/12 05:22:37;;;;;;;;;;;;;;;;;;5053385;28;20313;-70
2024/01/12 05:25:03;;;;;;;;;;;;;;;;;;5053560;28;19909;-69
2024/01/12 05:27:29;;;;;;;;;;;;;;;;;;5053186;28;19998;-69
2024/01/12 05:29:55;;;;;;;;;;;;;;;;;;5053392;28;20337;-70
2024/01/12 05:32:21;;;;;;;;;;;;;;;;;;5053459;28;19909;-70
2024/01/12 05:34:46;;;;;;;;;;;;;;;;;;5051748;28;20031;-70
2024/01/12 05:37:12;;;;;;;;;;;;;;;;;;5053361;28;19909;-70
2024/01/12 05:39:38;;;;;;;;;;;;;;;;;;5053343;28;19959;-68
2024/01/12 05:42:04;;;;;;;;;;;;;;;;;;5052779;28;19920;-68
2024/01/12 05:44:30;;;;;;;;;;;;;;;;;;5053288;28;19909;-68
2024/01/12 05:46:56;;;;;;;;;;;;;;;;;;5053380;28;19913;-70
2024/01/12 05:49:22;;;;;;;;;;;;;;;;;;5053046;28;20324;-70
2024/01/12 05:51:48;;;;;;;;;;;;;;;;;;5053199;28;20258;-70
2024/01/12 05:54:14;;;;;;;;;;;;;;;;;;5051934;28;19916;-69
2024/01/12 05:56:40;;;;;;;;;;;;;;;;;;5052551;28;19955;-70
2024/01/12 05:59:06;;;;;;;;;;;;;;;;;;5053149;28;19948;-69
2024/01/12 06:01:32;;;;;;;;;;;;;;;;;;5052986;28;19920;-70
2024/01/12 06:03:58;;;;;;;;;;;;;;;;;;5052620;28;19909;-69
2024/01/12 06:06:24;;;;;;;;;;;;;;;;;;5051792;28;19920;-69
2024/01/12 06:08:50;;;;;;;;;;;;;;;;;;5053046;28;19955;-69
2024/01/12 06:11:16;;;;;;;;;;;;;;;;;;5053440;28;19909;-69
2024/01/12 06:13:42;;;;;;;;;;;;;;;;;;5056696;28;19915;-69
2024/01/12 06:16:08;;;;;;;;;;;;;;;;;;5055263;28;19916;-69
2024/01/12 06:18:34;;;;;;;;;;;;;;;;;;5056171;28;19912;-69
2024/01/12 06:21:00;;;;;;;;;;;;;;;;;;5055243;28;19912;-69
2024/01/12 06:23:26;;;;;;;;;;;;;;;;;;5056062;28;19917;-69
2024/01/12 06:25:52;;;;;;;;;;;;;;;;;;5056462;28;20265;-69
2024/01/12 06:28:18;;;;;;;;;;;;;;;;;;5055069;28;19909;-69
2024/01/12 06:30:44;;;;;;;;;;;;;;;;;;5056495;28;19924;-70
2024/01/12 06:33:12;;;;;;;;;;;;;;;;;;5056398;28;19909;-70
2024/01/12 06:35:39;;;;;;;;;;;;;;;;;;5054918;28;20366;-70
2024/01/12 06:38:05;;;;;;;;;;;;;;;;;;5055749;28;19909;-69
2024/01/12 06:40:31;;;;;;;;;;;;;;;;;;5056390;28;20262;-69
2024/01/12 06:42:57;;;;;;;;;;;;;;;;;;5056018;28;19917;-69
2024/01/12 06:45:23;;;;;;;;;;;;;;;;;;5055839;28;20384;-69
2024/01/12 06:47:49;;;;;;;;;;;;;;;;;;5055050;28;20353;-69
2024/01/12 06:50:15;;;;;;;;;;;;;;;;;;5056087;28;19913;-69
2024/01/12 06:52:41;;;;;;;;;;;;;;;;;;5054188;28;20254;-69
2024/01/12 06:55:07;;;;;;;;;;;;;;;;;;5055740;28;19909;-69
2024/01/12 06:57:33;;;;;;;;;;;;;;;;;;5056113;28;20413;-69
2024/01/12 06:59:59;;;;;;;;;;;;;;;;;;5055423;28;20361;-69
2024/01/12 07:02:25;;;;;;;;;;;;;;;;;;5055745;28;20362;-69
2024/01/12 07:04:51;;;;;;;;;;;;;;;;;;5054385;28;20298;-69
2024/01/12 07:07:16;;;;;;;;;;;;;;;;;;5055239;28;20247;-69
2024/01/12 07:09:44;;;;;;;;;;;;;;;;;;5054307;28;19909;-69
2024/01/12 07:12:10;;;;;;;;;;;;;;;;;;5054269;28;19915;-69
2024/01/12 07:14:36;;;;;;;;;;;;;;;;;;5055153;28;20285;-69
2024/01/12 07:17:02;;;;;;;;;;;;;;;;;;5055492;28;19970;-69
2024/01/12 07:19:28;;;;;;;;;;;;;;;;;;5055367;28;19909;-69
2024/01/12 07:21:54;;;;;;;;;;;;;;;;;;5054767;28;19920;-69
2024/01/12 07:24:20;;;;;;;;;;;;;;;;;;5055371;28;19931;-69
2024/01/12 07:26:46;;;;;;;;;;;;;;;;;;5054930;28;19908;-69
2024/01/12 07:29:14;;;;;;;;;;;;;;;;;;5055264;28;19916;-70
2024/01/12 07:31:40;;;;;;;;;;;;;;;;;;5055233;28;19909;-70
2024/01/12 07:34:06;;;;;;;;;;;;;;;;;;5054754;28;19915;-70
2024/01/12 07:36:32;;;;;;;;;;;;;;;;;;5055172;28;19909;-69
2024/01/12 07:38:58;;;;;;;;;;;;;;;;;;5055383;28;19908;-69
2024/01/12 07:41:24;;;;;;;;;;;;;;;;;;5053357;28;19913;-70
2024/01/12 07:43:50;;;;;;;;;;;;;;;;;;5054893;28;19920;-70
2024/01/12 07:46:16;;;;;;;;;;;;;;;;;;5054974;28;19909;-70
2024/01/12 07:48:42;;;;;;;;;;;;;;;;;;5054645;28;19909;-70
2024/01/12 07:51:08;;;;;;;;;;;;;;;;;;5055024;28;19916;-70
2024/01/12 07:53:34;;;;;;;;;;;;;;;;;;5054741;28;19999;-70
2024/01/12 07:56:00;;;;;;;;;;;;;;;;;;5054251;28;19943;-70
2024/01/12 07:58:26;;;;;;;;;;;;;;;;;;5054735;28;19909;-70
2024/01/12 08:00:52;;;;;;;;;;;;;;;;;;5053442;28;20008;-70
2024/01/12 08:03:18;;;;;;;;;;;;;;;;;;5054038;28;19917;-70
2024/01/12 08:05:44;;;;;;;;;;;;;;;;;;5054803;28;19990;-70
2024/01/12 08:08:11;;;;;;;;;;;;;;;;;;5054446;28;20020;-71
2024/01/12 08:10:37;;;;;;;;;;;;;;;;;;5053980;28;20388;-70
2024/01/12 08:13:03;;;;;;;;;;;;;;;;;;5054414;28;19909;-70
2024/01/12 08:15:29;;;;;;;;;;;;;;;;;;5055036;28;19909;-70
2024/01/12 08:17:55;;;;;;;;;;;;;;;;;;5054309;28;20388;-70
2024/01/12 08:20:21;;;;;;;;;;;;;;;;;;5054216;28;19932;-70
2024/01/12 08:22:47;;;;;;;;;;;;;;;;;;5054257;28;20007;-70
2024/01/12 08:25:13;;;;;;;;;;;;;;;;;;5052583;28;20277;-69
2024/01/12 08:27:39;;;;;;;;;;;;;;;;;;5054127;28;19913;-69
2024/01/12 08:30:07;;;;;;;;;;;;;;;;;;5053727;28;19909;-69
2024/01/12 08:32:33;;;;;;;;;;;;;;;;;;5052780;28;19909;-69
2024/01/12 08:34:59;;;;;;;;;;;;;;;;;;5053455;28;19916;-69
2024/01/12 08:37:25;;;;;;;;;;;;;;;;;;5052361;28;19951;-69
2024/01/12 08:39:51;;;;;;;;;;;;;;;;;;5053931;28;19990;-69
2024/01/12 08:42:17;;;;;;;;;;;;;;;;;;5052597;28;19921;-69
2024/01/12 08:44:43;;;;;;;;;;;;;;;;;;5053480;28;19915;-70
2024/01/12 08:47:09;;;;;;;;;;;;;;;;;;5052599;28;19913;-70
2024/01/12 08:49:35;;;;;;;;;;;;;;;;;;5053806;28;19909;-70
2024/01/12 08:52:01;;;;;;;;;;;;;;;;;;5053452;28;19955;-70
2024/01/12 08:54:27;;;;;;;;;;;;;;;;;;5053709;28;19955;-70
2024/01/12 08:56:53;;;;;;;;;;;;;;;;;;5053577;28;20328;-70
2024/01/12 08:59:20;;;;;;;;;;;;;;;;;;5053339;28;19963;-70
2024/01/12 09:01:46;;;;;;;;;;;;;;;;;;5053567;28;20386;-71
2024/01/12 09:04:12;;;;;;;;;;;;;;;;;;5052310;28;19932;-70
2024/01/12 09:06:38;;;;;;;;;;;;;;;;;;5053275;28;20369;-70
2024/01/12 09:09:04;;;;;;;;;;;;;;;;;;5053736;28;20379;-70
2024/01/12 09:11:30;;;;;;;;;;;;;;;;;;5053536;28;19915;-70
2024/01/12 09:13:56;;;;;;;;;;;;;;;;;;5053178;28;19909;-70
2024/01/12 09:16:22;;;;;;;;;;;;;;;;;;5053509;28;19935;-71
2024/01/12 09:18:48;;;;;;;;;;;;;;;;;;5053804;28;19909;-71
2024/01/12 09:21:14;;;;;;;;;;;;;;;;;;5053022;28;19919;-71
2024/01/12 09:23:41;;;;;;;;;;;;;;;;;;5053380;28;19958;-71
2024/01/12 09:26:08;;;;;;;;;;;;;;;;;;5053371;28;20318;-71
2024/01/12 09:28:34;;;;;;;;;;;;;;;;;;5053723;28;19913;-71
2024/01/12 09:31:00;;;;;;;;;;;;;;;;;;5053437;28;19915;-71
2024/01/12 09:33:26;;;;;;;;;;;;;;;;;;5051769;28;19909;-71
2024/01/12 09:35:53;;;;;;;;;;;;;;;;;;5053530;28;20415;-71
2024/01/12 09:38:19;;;;;;;;;;;;;;;;;;5053687;28;20281;-71
2024/01/12 09:40:46;;;;;;;;;;;;;;;;;;5053013;28;19913;-71
2024/01/12 09:43:12;;;;;;;;;;;;;;;;;;5051891;28;19917;-71
2024/01/12 09:45:38;;;;;;;;;;;;;;;;;;5053320;28;19909;-71
2024/01/12 09:48:04;;;;;;;;;;;;;;;;;;5055335;28;19958;-71
2024/01/12 09:50:30;;;;;;;;;;;;;;;;;;5055807;28;19909;-71
2024/01/12 09:52:56;;;;;;;;;;;;;;;;;;5055680;28;19916;-71
2024/01/12 09:55:22;;;;;;;;;;;;;;;;;;5055334;28;20353;-69
2024/01/12 09:57:48;;;;;;;;;;;;;;;;;;5057055;28;20276;-70
2024/01/12 10:00:17;;;;;;;;;;;;;;;;;;5056996;28;19974;-70
2024/01/12 10:02:43;;;;;;;;;;;;;;;;;;5056491;28;19963;-70
2024/01/12 10:05:09;;;;;;;;;;;;;;;;;;5055543;28;19909;-70
2024/01/12 10:07:35;;;;;;;;;;;;;;;;;;5056857;28;19908;-70
2024/01/12 10:10:01;;;;;;;;;;;;;;;;;;5055172;28;19909;-70
2024/01/12 10:12:27;;;;;;;;;;;;;;;;;;5055470;28;19938;-71
2024/01/12 10:14:53;;;;;;;;;;;;;;;;;;5056660;28;19909;-71
2024/01/12 10:17:19;;;;;;;;;;;;;;;;;;5054957;28;20285;-71
2024/01/12 10:19:44;;;;;;;;;;;;;;;;;;5056414;28;19909;-71
2024/01/12 10:22:10;;;;;;;;;;;;;;;;;;5056414;28;19916;-71
2024/01/12 10:24:36;;;;;;;;;;;;;;;;;;5056121;28;19916;-71
2024/01/12 10:27:03;;;;;;;;;;;;;;;;;;5055187;28;20012;-71
2024/01/12 10:29:29;;;;;;;;;;;;;;;;;;5056098;28;19909;-70
2024/01/12 10:31:55;;;;;;;;;;;;;;;;;;5056358;28;19955;-70
2024/01/12 10:34:21;;;;;;;;;;;;;;;;;;5055010;28;19909;-70
2024/01/12 10:36:47;;;;;;;;;;;;;;;;;;5055934;28;20531;-70
2024/01/12 10:39:13;;;;;;;;;;;;;;;;;;5056221;28;20281;-70
2024/01/12 10:41:39;;;;;;;;;;;;;;;;;;5055994;28;19917;-70
2024/01/12 10:44:05;;;;;;;;;;;;;;;;;;5055648;28;20383;-70
2024/01/12 10:46:31;;;;;;;;;;;;;;;;;;5055964;28;19932;-70
2024/01/12 10:48:57;;;;;;;;;;;;;;;;;;5054706;28;20365;-71
2024/01/12 10:51:23;;;;;;;;;;;;;;;;;;5055626;28;19909;-70
2024/01/12 10:53:51;;;;;;;;;;;;;;;;;;5055919;28;19915;-70
2024/01/12 10:56:17;;;;;;;;;;;;;;;;;;5055929;28;19921;-71
2024/01/12 10:58:44;;;;;;;;;;;;;;;;;;5054999;28;19932;-69
2024/01/12 11:01:10;;;;;;;;;;;;;;;;;;5056384;28;19909;-69
2024/01/12 11:03:36;;;;;;;;;;;;;;;;;;5055687;28;19924;-70
2024/01/12 11:06:02;;;;;;;;;;;;;;;;;;5053911;28;20381;-70
2024/01/12 11:08:28;;;;;;;;;;;;;;;;;;5055607;28;19909;-69
2024/01/12 11:10:54;;;;;;;;;;;;;;;;;;5055534;28;19913;-70
2024/01/12 11:13:20;;;;;;;;;;;;;;;;;;5055057;28;20392;-70
2024/01/12 11:15:50;;;;;;;;;;;;;;;;;;5055481;28;19952;-70
2024/01/12 11:18:16;;;;;;;;;;;;;;;;;;5055434;28;19916;-70
2024/01/12 11:20:44;;;;;;;;;;;;;;;;;;5055012;28;19908;-70
2024/01/12 11:23:10;;;;;;;;;;;;;;;;;;5053945;28;20358;-70
2024/01/12 11:25:36;;;;;;;;;;;;;;;;;;5055432;28;19948;-70
2024/01/12 11:28:02;;;;;;;;;;;;;;;;;;5054881;28;20380;-70
2024/01/12 11:30:29;;;;;;;;;;;;;;;;;;5055252;28;20009;-70
2024/01/12 11:32:55;;;;;;;;;;;;;;;;;;5054785;28;19909;-70
2024/01/12 11:35:21;;;;;;;;;;;;;;;;;;5055224;28;20385;-71
2024/01/12 11:37:48;;;;;;;;;;;;;;;;;;5055522;28;20440;-71
2024/01/12 11:40:14;;;;;;;;;;;;;;;;;;5054706;28;19920;-70
2024/01/12 11:42:39;;;;;;;;;;;;;;;;;;5055548;28;20358;-70
2024/01/12 11:45:07;;;;;;;;;;;;;;;;;;5055105;28;19916;-70
2024/01/12 11:47:33;;;;;;;;;;;;;;;;;;5053170;28;20003;-70
2024/01/12 11:49:59;;;;;;;;;;;;;;;;;;5054591;28;20352;-70
2024/01/12 11:52:25;;;;;;;;;;;;;;;;;;5054542;28;19971;-70
2024/01/12 11:54:51;;;;;;;;;;;;;;;;;;5052975;28;19909;-69
2024/01/12 11:57:20;;;;;;;;;;;;;;;;;;5054310;28;19971;-70
2024/01/12 11:59:46;;;;;;;;;;;;;;;;;;5052939;28;19909;-69
2024/01/12 12:02:12;;;;;;;;;;;;;;;;;;5052604;28;20297;-69
2024/01/12 12:04:40;;;;;;;;;;;;;;;;;;5053871;28;20208;-70
2024/01/12 12:07:06;;;;;;;;;;;;;;;;;;5054362;28;19908;-70
2024/01/12 12:09:32;;;;;;;;;;;;;;;;;;5052901;28;19905;-69
2024/01/12 12:11:57;;;;;;;;;;;;;;;;;;5054079;28;19909;-69
2024/01/12 12:14:23;;;;;;;;;;;;;;;;;;5053993;28;19909;-70
2024/01/12 12:16:49;;;;;;;;;;;;;;;;;;5053625;28;19962;-69
2024/01/12 12:19:15;;;;;;;;;;;;;;;;;;5054186;28;19905;-69
2024/01/12 12:21:41;;;;;;;;;;;;;;;;;;5053930;28;19934;-70
2024/01/12 12:24:07;;;;;;;;;;;;;;;;;;5053691;28;20432;-70
2024/01/12 12:26:33;;;;;;;;;;;;;;;;;;5053821;28;20278;-69
2024/01/12 12:28:59;;;;;;;;;;;;;;;;;;5053781;28;19908;-69
2024/01/12 12:31:31;;;;;;;;;;;;;;;;;;5053890;28;19916;-69
2024/01/12 12:33:57;;;;;;;;;;;;;;;;;;5052477;28;19999;-69
2024/01/12 12:36:23;;;;;;;;;;;;;;;;;;5053186;28;20373;-69
2024/01/12 12:38:49;;;;;;;;;;;;;;;;;;5053644;28;19943;-69
2024/01/12 12:41:16;;;;;;;;;;;;;;;;;;5053585;28;20309;-69
2024/01/12 12:43:44;;;;;;;;;;;;;;;;;;5053112;28;20436;-69
2024/01/12 12:46:10;;;;;;;;;;;;;;;;;;5052236;28;20336;-69
2024/01/12 12:48:36;;;;;;;;;;;;;;;;;;5053632;28;19909;-69
2024/01/12 12:51:02;;;;;;;;;;;;;;;;;;5053746;28;19936;-71
2024/01/12 12:53:28;;;;;;;;;;;;;;;;;;5052589;28;19910;-70
2024/01/12 12:55:54;;;;;;;;;;;;;;;;;;5052266;28;20345;-70
2024/01/12 12:58:20;;;;;;;;;;;;;;;;;;5052315;28;19920;-69
2024/01/12 13:00:46;;;;;;;;;;;;;;;;;;5052442;28;20403;-70
2024/01/12 13:03:12;;;;;;;;;;;;;;;;;;5053512;28;19939;-69
2024/01/12 13:05:38;;;;;;;;;;;;;;;;;;5053208;28;19916;-70
2024/01/12 13:08:04;;;;;;;;;;;;;;;;;;5053820;28;19913;-70
2024/01/12 13:10:30;;;;;;;;;;;;;;;;;;5053635;28;19954;-70
2024/01/12 13:12:57;;;;;;;;;;;;;;;;;;5053147;28;19909;-70
2024/01/12 13:15:23;;;;;;;;;;;;;;;;;;5053559;28;20357;-70
2024/01/12 13:17:49;;;;;;;;;;;;;;;;;;5053607;28;19909;-70
2024/01/12 13:20:16;;;;;;;;;;;;;;;;;;5053980;28;19974;-70
2024/01/12 13:22:42;;;;;;;;;;;;;;;;;;5057557;28;19917;-70
2024/01/12 13:25:08;;;;;;;;;;;;;;;;;;5057609;28;19931;-70
2024/01/12 13:27:34;;;;;;;;;;;;;;;;;;5057100;28;19913;-70
2024/01/12 13:30:00;;;;;;;;;;;;;;;;;;5056010;28;19909;-70
2024/01/12 13:32:25;;;;;;;;;;;;;;;;;;5056958;28;19928;-70
2024/01/12 13:34:51;;;;;;;;;;;;;;;;;;5057395;28;19948;-70
2024/01/12 13:37:17;;;;;;;;;;;;;;;;;;5057632;28;19909;-70
2024/01/12 13:39:43;;;;;;;;;;;;;;;;;;5056915;28;19999;-70
2024/01/12 13:42:09;;;;;;;;;;;;;;;;;;5057374;28;19919;-70
2024/01/12 13:44:35;;;;;;;;;;;;;;;;;;5057715;28;19909;-70
2024/01/12 13:47:02;;;;;;;;;;;;;;;;;;5056894;28;19908;-70
2024/01/12 13:49:28;;;;;;;;;;;;;;;;;;5057521;28;19909;-70
2024/01/12 13:51:54;;;;;;;;;;;;;;;;;;5057094;28;19934;-69
2024/01/12 13:54:20;;;;;;;;;;;;;;;;;;5056580;28;19916;-69
2024/01/12 13:56:46;;;;;;;;;;;;;;;;;;5056858;28;19960;-69
2024/01/12 13:59:12;;;;;;;;;;;;;;;;;;5057177;28;19912;-70
2024/01/12 14:01:38;;;;;;;;;;;;;;;;;;5055112;28;19908;-70
2024/01/12 14:04:05;;;;;;;;;;;;;;;;;;5055947;28;19928;-70
2024/01/12 14:06:33;;;;;;;;;;;;;;;;;;5056755;28;19909;-69
2024/01/12 14:08:59;;;;;;;;;;;;;;;;;;5056344;28;19909;-69
2024/01/12 14:11:25;;;;;;;;;;;;;;;;;;5056737;28;19909;-69
2024/01/12 14:13:51;;;;;;;;;;;;;;;;;;5056752;28;20293;-71
2024/01/12 14:16:17;;;;;;;;;;;;;;;;;;5056322;28;19908;-70
2024/01/12 14:18:43;;;;;;;;;;;;;;;;;;5056684;28;19916;-70
2024/01/12 14:21:09;;;;;;;;;;;;;;;;;;5055256;28;20284;-70
2024/01/12 14:23:35;;;;;;;;;;;;;;;;;;5056102;28;19917;-70
2024/01/12 14:26:01;;;;;;;;;;;;;;;;;;5056581;28;19916;-69
2024/01/12 14:28:27;;;;;;;;;;;;;;;;;;5057056;28;20350;-70
2024/01/12 14:30:53;;;;;;;;;;;;;;;;;;5056005;28;20381;-70
2024/01/12 14:33:19;;;;;;;;;;;;;;;;;;5055603;28;20365;-70
2024/01/12 14:35:45;;;;;;;;;;;;;;;;;;5055914;28;19908;-70
2024/01/12 14:38:11;;;;;;;;;;;;;;;;;;5056253;28;20269;-70
2024/01/12 14:40:37;;;;;;;;;;;;;;;;;;5056236;28;19948;-70
2024/01/12 14:43:03;;;;;;;;;;;;;;;;;;5055642;28;19990;-69
2024/01/12 14:45:29;;;;;;;;;;;;;;;;;;5056103;28;19909;-69
2024/01/12 14:47:55;;;;;;;;;;;;;;;;;;5054759;28;19909;-69
2024/01/12 14:50:22;;;;;;;;;;;;;;;;;;5054394;28;19915;-69
2024/01/12 14:52:48;;;;;;;;;;;;;;;;;;5054858;28;19977;-69
2024/01/12 14:55:14;;;;;;;;;;;;;;;;;;5055871;28;20373;-68
2024/01/12 14:57:40;;;;;;;;;;;;;;;;;;5055520;28;19916;-69
2024/01/12 15:00:08;;;;;;;;;;;;;;;;;;5056060;28;20043;-69
2024/01/12 15:02:34;;;;;;;;;;;;;;;;;;5054441;28;19973;-70
2024/01/12 15:05:00;;;;;;;;;;;;;;;;;;5055350;28;19996;-69
2024/01/12 15:07:26;;;;;;;;;;;;;;;;;;5055995;28;19908;-70
2024/01/12 15:09:52;;;;;;;;;;;;;;;;;;5055840;28;19916;-70
2024/01/12 15:12:18;;;;;;;;;;;;;;;;;;5055228;28;20000;-70
2024/01/12 15:14:44;;;;;;;;;;;;;;;;;;5055632;28;19979;-69
2024/01/12 15:17:10;;;;;;;;;;;;;;;;;;5055802;28;19909;-70
2024/01/12 15:19:36;;;;;;;;;;;;;;;;;;5053913;28;20383;-69
2024/01/12 15:22:02;;;;;;;;;;;;;;;;;;5055388;28;20484;-69
2024/01/12 15:24:28;;;;;;;;;;;;;;;;;;5055458;28;19908;-69
2024/01/12 15:26:54;;;;;;;;;;;;;;;;;;5055019;28;20323;-69
2024/01/12 15:29:20;;;;;;;;;;;;;;;;;;5055447;28;19963;-69
2024/01/12 15:31:46;;;;;;;;;;;;;;;;;;5055263;28;19955;-69
2024/01/12 15:34:12;;;;;;;;;;;;;;;;;;5054788;28;19952;-69
2024/01/12 15:36:38;;;;;;;;;;;;;;;;;;5055176;28;19909;-69
2024/01/12 15:39:04;;;;;;;;;;;;;;;;;;5053458;28;19965;-69
2024/01/12 15:41:30;;;;;;;;;;;;;;;;;;5054977;28;19909;-69
2024/01/12 15:43:57;;;;;;;;;;;;;;;;;;5053724;28;20373;-70
2024/01/12 15:46:23;;;;;;;;;;;;;;;;;;5054634;28;19915;-69
2024/01/12 15:48:49;;;;;;;;;;;;;;;;;;5053631;28;19931;-69
2024/01/12 15:51:15;;;;;;;;;;;;;;;;;;5054079;28;20432;-69
2024/01/12 15:53:41;;;;;;;;;;;;;;;;;;5054430;28;19909;-69
2024/01/12 15:56:07;;;;;;;;;;;;;;;;;;5054528;28;19951;-69
2024/01/12 15:58:33;;;;;;;;;;;;;;;;;;5054825;28;19916;-70
2024/01/12 16:00:59;;;;;;;;;;;;;;;;;;5054281;28;19909;-69
2024/01/12 16:03:27;;;;;;;;;;;;;;;;;;5053267;28;20024;-70
2024/01/12 16:05:53;;;;;;;;;;;;;;;;;;5054610;28;19908;-70
2024/01/12 16:08:19;;;;;;;;;;;;;;;;;;5054137;28;19913;-70
2024/01/12 16:10:45;;;;;;;;;;;;;;;;;;5054556;28;19909;-70
2024/01/12 16:13:11;;;;;;;;;;;;;;;;;;5053068;28;19915;-69
2024/01/12 16:15:36;;;;;;;;;;;;;;;;;;5052747;28;19916;-69
2024/01/12 16:18:02;;;;;;;;;;;;;;;;;;5054446;28;20380;-69
2024/01/12 16:20:29;;;;;;;;;;;;;;;;;;5054514;28;20254;-69
2024/01/12 16:22:54;;;;;;;;;;;;;;;;;;5052939;28;19923;-69
2024/01/12 16:25:20;;;;;;;;;;;;;;;;;;5054495;28;20284;-68
2024/01/12 16:27:49;;;;;;;;;;;;;;;;;;5054438;28;19913;-69
2024/01/12 16:30:15;;;;;;;;;;;;;;;;;;5053865;28;19909;-69
2024/01/12 16:32:41;;;;;;;;;;;;;;;;;;5054134;28;19915;-69
2024/01/12 16:35:07;;;;;;;;;;;;;;;;;;5054392;28;19909;-69
2024/01/12 16:37:34;;;;;;;;;;;;;;;;;;5053682;28;19916;-69